sensor_id;sensor_type;location;lat;lon;timestamp;pressure;altitude;pressure_sealevel;temperature;humidity
58373;BME280;44177;43.356;27.672;2022-09-21T00:00:38;98084.41;;;20.88;42.47
58373;BME280;44177;43.356;27.672;2022-09-21T00:03:05;98093.84;;;20.94;42.53
58373;BME280;44177;43.356;27.672;2022-09-21T00:05:31;98089.13;;;20.91;42.57
58373;BME280;44177;43.356;27.672;2022-09-21T00:08:01;98081.63;;;20.91;42.40
58373;BME280;44177;43.356;27.672;2022-09-21T00:10:27;98089.94;;;20.91;42.52
58373;BME280;44177;43.356;27.672;2022-09-21T00:12:53;98085.16;;;20.92;42.58
58373;BME280;44177;43.356;27.672;2022-09-21T00:15:18;98096.25;;;20.92;42.41
58373;BME280;44177;43.356;27.672;2022-09-21T00:17:45;98098.25;;;20.91;42.44
58373;BME280;44177;43.356;27.672;2022-09-21T00:20:14;98093.91;;;20.90;42.64
58373;BME280;44177;43.356;27.672;2022-09-21T00:22:40;98093.91;;;20.90;42.53
58373;BME280;44177;43.356;27.672;2022-09-21T00:25:07;98098.66;;;20.90;42.47
58373;BME280;44177;43.356;27.672;2022-09-21T00:27:33;98095.88;;;20.90;42.60
58373;BME280;44177;43.356;27.672;2022-09-21T00:29:59;98088.75;;;20.89;42.69
58373;BME280;44177;43.356;27.672;2022-09-21T00:32:29;98107.41;;;20.88;42.72
58373;BME280;44177;43.356;27.672;2022-09-21T00:34:59;98099.84;;;20.89;42.47
58373;BME280;44177;43.356;27.672;2022-09-21T00:37:25;98095.50;;;20.88;42.69
58373;BME280;44177;43.356;27.672;2022-09-21T00:39:52;98095.50;;;20.88;42.66
58373;BME280;44177;43.356;27.672;2022-09-21T00:44:46;98091.63;;;20.81;42.51
58373;BME280;44177;43.356;27.672;2022-09-21T00:47:15;98096.75;;;20.87;42.35
58373;BME280;44177;43.356;27.672;2022-09-21T00:49:44;98099.50;;;20.87;42.54
58373;BME280;44177;43.356;27.672;2022-09-21T00:52:14;98105.06;;;20.87;42.48
58373;BME280;44177;43.356;27.672;2022-09-21T00:54:46;98105.06;;;20.87;42.54
58373;BME280;44177;43.356;27.672;2022-09-21T00:57:14;98104.25;;;20.86;42.62
58373;BME280;44177;43.356;27.672;2022-09-21T00:59:42;98092.38;;;20.86;42.60
58373;BME280;44177;43.356;27.672;2022-09-21T01:02:09;98093.59;;;20.85;42.52
58373;BME280;44177;43.356;27.672;2022-09-21T01:04:37;98094.38;;;20.85;42.50
58373;BME280;44177;43.356;27.672;2022-09-21T01:07:05;98099.13;;;20.85;42.50
58373;BME280;44177;43.356;27.672;2022-09-21T01:09:33;98094.78;;;20.83;42.57
58373;BME280;44177;43.356;27.672;2022-09-21T01:31:11;98094.06;;;20.79;42.50
58373;BME280;44177;43.356;27.672;2022-09-21T01:33:43;98094.06;;;20.79;42.46
58373;BME280;44177;43.356;27.672;2022-09-21T01:36:17;98084.94;;;20.79;42.33
58373;BME280;44177;43.356;27.672;2022-09-21T01:38:48;98088.53;;;20.79;42.41
58373;BME280;44177;43.356;27.672;2022-09-21T01:41:17;98081.41;;;20.78;42.39
58373;BME280;44177;43.356;27.672;2022-09-21T01:43:49;98080.59;;;20.78;42.49
58373;BME280;44177;43.356;27.672;2022-09-21T01:46:18;98086.94;;;20.78;42.40
58373;BME280;44177;43.356;27.672;2022-09-21T01:48:57;98079.84;;;20.77;42.40
58373;BME280;44177;43.356;27.672;2022-09-21T01:51:26;98082.59;;;20.77;42.38
58373;BME280;44177;43.356;27.672;2022-09-21T01:54:00;98085.38;;;20.77;42.22
58373;BME280;44177;43.356;27.672;2022-09-21T01:56:39;98082.22;;;20.75;42.37
58373;BME280;44177;43.356;27.672;2022-09-21T02:01:58;98071.94;;;20.72;42.38
58373;BME280;44177;43.356;27.672;2022-09-21T02:04:25;98085.78;;;20.76;42.53
58373;BME280;44177;43.356;27.672;2022-09-21T02:06:51;98087.78;;;20.75;42.30
58373;BME280;44177;43.356;27.672;2022-09-21T02:09:17;98089.78;;;20.75;42.42
58373;BME280;44177;43.356;27.672;2022-09-21T02:11:43;98087.78;;;20.75;42.34
58373;BME280;44177;43.356;27.672;2022-09-21T02:14:18;98088.97;;;20.74;42.28
58373;BME280;44177;43.356;27.672;2022-09-21T02:22:56;98090.19;;;20.73;42.35
58373;BME280;44177;43.356;27.672;2022-09-21T02:25:48;98088.56;;;20.72;42.25
58373;BME280;44177;43.356;27.672;2022-09-21T02:28:28;98080.69;;;20.71;42.18
58373;BME280;44177;43.356;27.672;2022-09-21T02:31:15;98092.56;;;20.71;42.39
58373;BME280;44177;43.356;27.672;2022-09-21T02:33:53;98081.88;;;20.70;42.16
58373;BME280;44177;43.356;27.672;2022-09-21T02:36:40;98081.09;;;20.69;42.34
58373;BME280;44177;43.356;27.672;2022-09-21T02:39:34;98083.88;;;20.69;42.40
58373;BME280;44177;43.356;27.672;2022-09-21T02:42:13;98073.22;;;20.67;42.28
58373;BME280;44177;43.356;27.672;2022-09-21T02:44:49;98079.53;;;20.68;42.37
58373;BME280;44177;43.356;27.672;2022-09-21T02:47:20;98076.75;;;20.68;42.50
58373;BME280;44177;43.356;27.672;2022-09-21T02:49:55;98084.31;;;20.67;42.33
58373;BME280;44177;43.356;27.672;2022-09-21T02:52:24;98087.84;;;20.68;42.07
58373;BME280;44177;43.356;27.672;2022-09-21T02:54:52;98085.50;;;20.66;42.13
58373;BME280;44177;43.356;27.672;2022-09-21T02:57:20;98086.28;;;20.67;42.14
58373;BME280;44177;43.356;27.672;2022-09-21T02:59:47;98089.84;;;20.67;42.22
58373;BME280;44177;43.356;27.672;2022-09-21T03:02:13;98091.81;;;20.67;42.40
58373;BME280;44177;43.356;27.672;2022-09-21T03:04:40;98084.72;;;20.66;42.14
58373;BME280;44177;43.356;27.672;2022-09-21T03:07:07;98093.03;;;20.66;42.10
58373;BME280;44177;43.356;27.672;2022-09-21T03:09:32;98087.47;;;20.66;42.26
58373;BME280;44177;43.356;27.672;2022-09-21T03:11:58;98083.94;;;20.65;42.36
58373;BME280;44177;43.356;27.672;2022-09-21T03:14:23;98083.13;;;20.65;42.28
58373;BME280;44177;43.356;27.672;2022-09-21T03:16:49;98089.88;;;20.64;42.23
58373;BME280;44177;43.356;27.672;2022-09-21T03:19:14;98087.09;;;20.64;42.06
58373;BME280;44177;43.356;27.672;2022-09-21T03:21:40;98072.94;;;20.58;42.14
58373;BME280;44177;43.356;27.672;2022-09-21T03:24:05;98081.56;;;20.64;42.24
58373;BME280;44177;43.356;27.672;2022-09-21T03:26:31;98091.88;;;20.63;42.23
58373;BME280;44177;43.356;27.672;2022-09-21T03:28:57;98091.88;;;20.63;42.13
58373;BME280;44177;43.356;27.672;2022-09-21T03:31:22;98087.53;;;20.62;42.27
58373;BME280;44177;43.356;27.672;2022-09-21T03:33:48;98090.31;;;20.62;42.15
58373;BME280;44177;43.356;27.672;2022-09-21T03:36:14;98095.06;;;20.62;42.51
58373;BME280;44177;43.356;27.672;2022-09-21T03:38:39;98087.94;;;20.61;42.42
58373;BME280;44177;43.356;27.672;2022-09-21T03:41:05;98076.91;;;20.57;42.43
58373;BME280;44177;43.356;27.672;2022-09-21T03:43:31;98089.16;;;20.60;42.43
58373;BME280;44177;43.356;27.672;2022-09-21T03:45:57;98098.25;;;20.60;42.26
58373;BME280;44177;43.356;27.672;2022-09-21T03:48:23;98097.47;;;20.60;42.32
58373;BME280;44177;43.356;27.672;2022-09-21T03:50:49;98094.75;;;20.56;42.15
58373;BME280;44177;43.356;27.672;2022-09-21T03:53:14;98093.13;;;20.59;42.30
58373;BME280;44177;43.356;27.672;2022-09-21T03:55:40;98093.97;;;20.56;42.30
58373;BME280;44177;43.356;27.672;2022-09-21T03:58:06;98099.09;;;20.57;42.29
58373;BME280;44177;43.356;27.672;2022-09-21T04:00:32;98111.75;;;20.58;42.36
58373;BME280;44177;43.356;27.672;2022-09-21T04:02:58;98108.16;;;20.58;42.20
58373;BME280;44177;43.356;27.672;2022-09-21T04:05:24;98110.16;;;20.57;42.37
58373;BME280;44177;43.356;27.672;2022-09-21T04:07:49;98106.59;;;20.57;42.40
58373;BME280;44177;43.356;27.672;2022-09-21T04:10:17;98109.38;;;20.57;42.43
58373;BME280;44177;43.356;27.672;2022-09-21T04:12:44;98107.81;;;20.56;42.24
58373;BME280;44177;43.356;27.672;2022-09-21T04:15:14;98114.91;;;20.57;42.39
58373;BME280;44177;43.356;27.672;2022-09-21T04:17:42;98105.44;;;20.54;42.38
58373;BME280;44177;43.356;27.672;2022-09-21T04:20:07;98113.38;;;20.56;42.40
58373;BME280;44177;43.356;27.672;2022-09-21T04:22:34;98099.97;;;20.50;42.26
58373;BME280;44177;43.356;27.672;2022-09-21T04:25:01;98106.25;;;20.55;42.42
58373;BME280;44177;43.356;27.672;2022-09-21T04:27:26;98106.25;;;20.55;42.26
58373;BME280;44177;43.356;27.672;2022-09-21T04:29:52;98099.13;;;20.54;42.40
58373;BME280;44177;43.356;27.672;2022-09-21T04:32:18;98103.47;;;20.55;42.48
58373;BME280;44177;43.356;27.672;2022-09-21T04:34:43;98109.03;;;20.55;42.37
58373;BME280;44177;43.356;27.672;2022-09-21T04:37:09;98115.75;;;20.54;42.42
58373;BME280;44177;43.356;27.672;2022-09-21T04:39:37;98114.19;;;20.52;42.20
58373;BME280;44177;43.356;27.672;2022-09-21T04:42:04;98114.19;;;20.52;42.40
58373;BME280;44177;43.356;27.672;2022-09-21T04:44:29;98116.97;;;20.52;42.36
58373;BME280;44177;43.356;27.672;2022-09-21T04:46:56;98118.16;;;20.51;42.41
58373;BME280;44177;43.356;27.672;2022-09-21T04:49:22;98116.16;;;20.52;42.37
58373;BME280;44177;43.356;27.672;2022-09-21T04:51:48;98114.19;;;20.52;42.58
58373;BME280;44177;43.356;27.672;2022-09-21T04:54:14;98122.91;;;20.51;42.40
58373;BME280;44177;43.356;27.672;2022-09-21T04:56:39;98116.59;;;20.50;42.52
58373;BME280;44177;43.356;27.672;2022-09-21T04:59:04;98118.94;;;20.52;42.61
58373;BME280;44177;43.356;27.672;2022-09-21T05:01:30;98129.22;;;20.51;42.40
58373;BME280;44177;43.356;27.672;2022-09-21T05:03:55;98123.69;;;20.51;42.41
58373;BME280;44177;43.356;27.672;2022-09-21T05:06:27;98107.97;;;20.41;42.47
58373;BME280;44177;43.356;27.672;2022-09-21T05:08:53;98120.94;;;20.51;42.40
58373;BME280;44177;43.356;27.672;2022-09-21T05:11:37;98127.66;;;20.50;42.61
58373;BME280;44177;43.356;27.672;2022-09-21T05:14:03;98132.00;;;20.51;42.48
58373;BME280;44177;43.356;27.672;2022-09-21T05:16:29;98123.69;;;20.51;42.66
58373;BME280;44177;43.356;27.672;2022-09-21T05:18:54;98131.22;;;20.51;42.55
58373;BME280;44177;43.356;27.672;2022-09-21T05:21:20;98130.81;;;20.52;42.73
58373;BME280;44177;43.356;27.672;2022-09-21T05:23:46;98127.66;;;20.50;42.62
58373;BME280;44177;43.356;27.672;2022-09-21T05:26:11;98126.47;;;20.51;42.56
58373;BME280;44177;43.356;27.672;2022-09-21T05:28:37;98134.00;;;20.51;42.83
58373;BME280;44177;43.356;27.672;2022-09-21T05:37:08;98122.13;;;20.50;42.74
58373;BME280;44177;43.356;27.672;2022-09-21T05:39:34;98125.69;;;20.51;43.04
58373;BME280;44177;43.356;27.672;2022-09-21T05:42:00;98126.47;;;20.51;42.95
58373;BME280;44177;43.356;27.672;2022-09-21T05:44:26;98124.47;;;20.52;42.65
58373;BME280;44177;43.356;27.672;2022-09-21T05:47:01;98125.28;;;20.52;42.97
58373;BME280;44177;43.356;27.672;2022-09-21T05:52:50;98129.22;;;20.51;43.09
58373;BME280;44177;43.356;27.672;2022-09-21T05:55:55;98117.38;;;20.51;43.00
58373;BME280;44177;43.356;27.672;2022-09-21T06:03:43;98126.47;;;20.51;42.66
58373;BME280;44177;43.356;27.672;2022-09-21T06:06:09;98119.41;;;20.47;42.48
58373;BME280;44177;43.356;27.672;2022-09-21T06:08:35;98134.78;;;20.51;42.82
58373;BME280;44177;43.356;27.672;2022-09-21T06:11:00;98122.16;;;20.47;42.59
58373;BME280;44177;43.356;27.672;2022-09-21T06:13:26;98139.13;;;20.52;42.48
58373;BME280;44177;43.356;27.672;2022-09-21T06:15:51;98135.16;;;20.54;42.60
58373;BME280;44177;43.356;27.672;2022-09-21T06:18:17;98130.81;;;20.52;42.55
58373;BME280;44177;43.356;27.672;2022-09-21T06:20:42;98133.16;;;20.54;42.55
58373;BME280;44177;43.356;27.672;2022-09-21T06:23:10;98137.94;;;20.54;42.49
58373;BME280;44177;43.356;27.672;2022-09-21T06:25:37;98133.97;;;20.55;42.72
58373;BME280;44177;43.356;27.672;2022-09-21T06:28:05;98137.50;;;20.55;42.59
58373;BME280;44177;43.356;27.672;2022-09-21T06:30:32;98133.97;;;20.55;42.54
58373;BME280;44177;43.356;27.672;2022-09-21T06:33:02;98133.97;;;20.55;42.67
58373;BME280;44177;43.356;27.672;2022-09-21T06:35:30;98142.63;;;20.57;42.60
58373;BME280;44177;43.356;27.672;2022-09-21T06:38:00;98141.06;;;20.56;42.56
58373;BME280;44177;43.356;27.672;2022-09-21T06:40:29;98143.84;;;20.56;42.40
58373;BME280;44177;43.356;27.672;2022-09-21T06:43:00;98147.38;;;20.56;42.01
58373;BME280;44177;43.356;27.672;2022-09-21T06:45:27;98136.31;;;20.56;40.95
58373;BME280;44177;43.356;27.672;2022-09-21T06:47:53;98141.06;;;20.56;40.65
58373;BME280;44177;43.356;27.672;2022-09-21T06:50:19;98136.31;;;20.56;40.35
58373;BME280;44177;43.356;27.672;2022-09-21T06:52:45;98132.38;;;20.54;40.41
58373;BME280;44177;43.356;27.672;2022-09-21T06:55:11;98131.63;;;20.49;40.93
58373;BME280;44177;43.356;27.672;2022-09-21T06:57:36;98133.97;;;20.55;41.81
58373;BME280;44177;43.356;27.672;2022-09-21T07:00:05;98138.75;;;20.50;42.03
58373;BME280;44177;43.356;27.672;2022-09-21T07:02:32;98136.72;;;20.55;42.29
58373;BME280;44177;43.356;27.672;2022-09-21T07:04:57;98134.72;;;20.55;42.15
58373;BME280;44177;43.356;27.672;2022-09-21T07:07:23;98130.00;;;20.56;42.20
58373;BME280;44177;43.356;27.672;2022-09-21T07:09:49;98141.84;;;20.56;42.38
58373;BME280;44177;43.356;27.672;2022-09-21T07:12:14;98141.84;;;20.56;42.62
58373;BME280;44177;43.356;27.672;2022-09-21T07:14:40;98146.97;;;20.58;42.38
58373;BME280;44177;43.356;27.672;2022-09-21T07:17:10;98134.78;;;20.51;42.60
58373;BME280;44177;43.356;27.672;2022-09-21T07:19:37;98139.47;;;20.58;42.43
58373;BME280;44177;43.356;27.672;2022-09-21T07:22:03;98145.78;;;20.59;42.62
58373;BME280;44177;43.356;27.672;2022-09-21T07:24:28;98131.97;;;20.55;42.70
58373;BME280;44177;43.356;27.672;2022-09-21T07:26:54;98135.06;;;20.61;42.67
58373;BME280;44177;43.356;27.672;2022-09-21T07:29:19;98139.41;;;20.62;42.60
58373;BME280;44177;43.356;27.672;2022-09-21T07:31:45;98134.25;;;20.60;42.94
58373;BME280;44177;43.356;27.672;2022-09-21T07:34:12;98143.75;;;20.63;42.73
58373;BME280;44177;43.356;27.672;2022-09-21T07:36:37;98136.97;;;20.64;42.75
58373;BME280;44177;43.356;27.672;2022-09-21T07:39:03;98138.56;;;20.65;42.68
58373;BME280;44177;43.356;27.672;2022-09-21T07:41:29;98141.72;;;20.67;42.77
58373;BME280;44177;43.356;27.672;2022-09-21T07:43:54;98136.16;;;20.67;42.79
58373;BME280;44177;43.356;27.672;2022-09-21T07:46:19;98137.75;;;20.68;42.78
58373;BME280;44177;43.356;27.672;2022-09-21T07:48:45;98128.22;;;20.69;42.89
58373;BME280;44177;43.356;27.672;2022-09-21T07:51:13;98132.56;;;20.70;42.74
58373;BME280;44177;43.356;27.672;2022-09-21T07:53:41;98128.59;;;20.71;42.72
58373;BME280;44177;43.356;27.672;2022-09-21T07:56:09;98125.81;;;20.71;42.95
58373;BME280;44177;43.356;27.672;2022-09-21T07:58:35;98127.38;;;20.72;43.00
58373;BME280;44177;43.356;27.672;2022-09-21T08:01:20;98115.56;;;20.68;43.08
58373;BME280;44177;43.356;27.672;2022-09-21T08:03:49;98119.47;;;20.74;43.11
58373;BME280;44177;43.356;27.672;2022-09-21T08:06:15;98123.81;;;20.75;43.06
58373;BME280;44177;43.356;27.672;2022-09-21T08:08:41;98121.81;;;20.76;42.86
58373;BME280;44177;43.356;27.672;2022-09-21T08:11:07;98118.69;;;20.74;43.07
58373;BME280;44177;43.356;27.672;2022-09-21T08:13:33;98124.19;;;20.77;43.04
58373;BME280;44177;43.356;27.672;2022-09-21T08:16:00;98121.00;;;20.79;42.85
58373;BME280;44177;43.356;27.672;2022-09-21T08:18:26;98126.09;;;20.80;42.88
58373;BME280;44177;43.356;27.672;2022-09-21T08:20:56;98125.72;;;20.82;42.82
58373;BME280;44177;43.356;27.672;2022-09-21T08:23:22;98125.72;;;20.82;42.78
58373;BME280;44177;43.356;27.672;2022-09-21T08:25:48;98123.28;;;20.84;42.63
58373;BME280;44177;43.356;27.672;2022-09-21T08:28:13;98124.09;;;20.85;42.65
58373;BME280;44177;43.356;27.672;2022-09-21T08:30:40;98120.94;;;20.82;42.71
58373;BME280;44177;43.356;27.672;2022-09-21T08:33:06;98120.47;;;20.88;42.46
58373;BME280;44177;43.356;27.672;2022-09-21T08:35:32;98120.84;;;20.90;42.50
58373;BME280;44177;43.356;27.672;2022-09-21T08:37:58;98125.19;;;20.91;42.35
58373;BME280;44177;43.356;27.672;2022-09-21T08:40:24;98126.31;;;20.93;42.56
58373;BME280;44177;43.356;27.672;2022-09-21T08:45:48;98121.09;;;20.99;42.51
58373;BME280;44177;43.356;27.672;2022-09-21T08:48:20;98112.34;;;21.01;42.38
58373;BME280;44177;43.356;27.672;2022-09-21T08:50:52;98113.53;;;21.03;42.38
58373;BME280;44177;43.356;27.672;2022-09-21T08:53:22;98098.44;;;21.04;42.32
58373;BME280;44177;43.356;27.672;2022-09-21T08:55:50;98096.78;;;21.10;42.30
58373;BME280;44177;43.356;27.672;2022-09-21T08:58:23;98107.88;;;21.10;42.18
58373;BME280;44177;43.356;27.672;2022-09-21T09:20:13;98085.44;;;21.25;41.98
58373;BME280;44177;43.356;27.672;2022-09-21T09:22:44;98089.38;;;21.27;41.70
58373;BME280;44177;43.356;27.672;2022-09-21T09:25:33;98085.38;;;21.28;41.80
58373;BME280;44177;43.356;27.672;2022-09-21T09:28:09;98080.25;;;21.27;41.82
58373;BME280;44177;43.356;27.672;2022-09-21T09:30:39;98074.22;;;21.32;41.99
58373;BME280;44177;43.356;27.672;2022-09-21T09:33:15;98081.34;;;21.33;41.82
58373;BME280;44177;43.356;27.672;2022-09-21T09:36:02;98071.81;;;21.34;41.80
58373;BME280;44177;43.356;27.672;2022-09-21T09:44:37;98075.69;;;21.40;41.71
58373;BME280;44177;43.356;27.672;2022-09-21T09:50:49;98079.59;;;21.43;41.50
58373;BME280;44177;43.356;27.672;2022-09-21T09:53:14;98070.50;;;21.42;41.44
58373;BME280;44177;43.356;27.672;2022-09-21T09:55:44;98062.22;;;21.39;41.56
58373;BME280;44177;43.356;27.672;2022-09-21T10:01:03;98067.72;;;21.42;41.48
58373;BME280;44177;43.356;27.672;2022-09-21T10:03:28;98070.84;;;21.44;41.28
58373;BME280;44177;43.356;27.672;2022-09-21T10:05:54;98065.28;;;21.44;41.46
58373;BME280;44177;43.356;27.672;2022-09-21T10:08:28;98057.34;;;21.46;41.50
58373;BME280;44177;43.356;27.672;2022-09-21T10:10:54;98046.22;;;21.46;41.58
58373;BME280;44177;43.356;27.672;2022-09-21T10:13:29;98044.53;;;21.53;41.61
58373;BME280;44177;43.356;27.672;2022-09-21T10:16:04;98042.50;;;21.57;40.91
58373;BME280;44177;43.356;27.672;2022-09-21T10:18:57;98033.38;;;21.56;41.23
58373;BME280;44177;43.356;27.672;2022-09-21T10:23:59;98026.63;;;21.57;41.53
58373;BME280;44177;43.356;27.672;2022-09-21T10:26:36;98044.09;;;21.58;41.45
58373;BME280;44177;43.356;27.672;2022-09-21T10:31:53;98038.56;;;21.54;41.52
58373;BME280;44177;43.356;27.672;2022-09-21T10:34:20;98050.09;;;21.53;41.37
58373;BME280;44177;43.356;27.672;2022-09-21T10:36:51;98051.78;;;21.46;41.60
58373;BME280;44177;43.356;27.672;2022-09-21T10:44:46;98047.88;;;21.44;41.51
58373;BME280;44177;43.356;27.672;2022-09-21T10:49:54;98054.31;;;21.37;41.73
58373;BME280;44177;43.356;27.672;2022-09-21T10:52:31;98055.88;;;21.38;41.60
58373;BME280;44177;43.356;27.672;2022-09-21T10:54:57;98052.75;;;21.36;41.70
58373;BME280;44177;43.356;27.672;2022-09-21T10:57:24;98048.84;;;21.34;41.77
58373;BME280;44177;43.356;27.672;2022-09-21T10:59:51;98050.84;;;21.33;41.63
58373;BME280;44177;43.356;27.672;2022-09-21T11:05:10;98048.13;;;21.29;41.35
58373;BME280;44177;43.356;27.672;2022-09-21T11:07:40;98054.06;;;21.28;41.17
58373;BME280;44177;43.356;27.672;2022-09-21T11:20:57;98058.16;;;21.20;41.54
58373;BME280;44177;43.356;27.672;2022-09-21T11:26:37;98049.91;;;21.16;41.51
58373;BME280;44177;43.356;27.672;2022-09-21T11:29:13;98047.56;;;21.14;40.93
58373;BME280;44177;43.356;27.672;2022-09-21T11:37:19;98041.31;;;21.10;41.01
58373;BME280;44177;43.356;27.672;2022-09-21T11:42:45;98040.56;;;21.06;40.66
58373;BME280;44177;43.356;27.672;2022-09-21T12:00:07;98033.16;;;20.99;40.93
58373;BME280;44177;43.356;27.672;2022-09-21T12:05:30;98023.69;;;20.97;40.83
58373;BME280;44177;43.356;27.672;2022-09-21T12:11:19;98026.06;;;20.98;40.93
58373;BME280;44177;43.356;27.672;2022-09-21T12:16:37;98017.75;;;20.98;40.99
58373;BME280;44177;43.356;27.672;2022-09-21T12:24:43;98015.72;;;20.99;41.30
58373;BME280;44177;43.356;27.672;2022-09-21T12:27:26;98016.94;;;20.98;41.02
58373;BME280;44177;43.356;27.672;2022-09-21T12:29:56;98011.38;;;20.98;41.24
58373;BME280;44177;43.356;27.672;2022-09-21T12:35:41;98027.66;;;20.96;41.13
58373;BME280;44177;43.356;27.672;2022-09-21T12:38:26;98033.19;;;20.96;41.40
58373;BME280;44177;43.356;27.672;2022-09-21T12:41:43;98021.78;;;20.94;41.08
58373;BME280;44177;43.356;27.672;2022-09-21T12:44:16;98014.72;;;20.89;41.32
58373;BME280;44177;43.356;27.672;2022-09-21T12:47:07;98019.78;;;20.94;41.13
58373;BME280;44177;43.356;27.672;2022-09-21T12:49:40;98021.78;;;20.94;41.07
58373;BME280;44177;43.356;27.672;2022-09-21T12:52:07;98021.78;;;20.94;41.28
58373;BME280;44177;43.356;27.672;2022-09-21T12:54:48;98030.47;;;20.92;41.29
58373;BME280;44177;43.356;27.672;2022-09-21T12:57:33;98047.13;;;20.92;41.27
58373;BME280;44177;43.356;27.672;2022-09-21T13:00:13;98051.13;;;20.91;41.57
58373;BME280;44177;43.356;27.672;2022-09-21T13:05:50;98047.19;;;20.89;41.65
58373;BME280;44177;43.356;27.672;2022-09-21T13:08:26;98051.16;;;20.88;41.50
58373;BME280;44177;43.356;27.672;2022-09-21T13:10:59;98049.59;;;20.87;41.38
58373;BME280;44177;43.356;27.672;2022-09-21T13:13:35;98049.59;;;20.87;41.66
58373;BME280;44177;43.356;27.672;2022-09-21T13:16:04;98059.13;;;20.86;41.44
58373;BME280;44177;43.356;27.672;2022-09-21T13:18:37;98061.47;;;20.87;41.56
58373;BME280;44177;43.356;27.672;2022-09-21T13:23:40;98065.00;;;20.88;41.63
58373;BME280;44177;43.356;27.672;2022-09-21T13:26:10;98066.25;;;20.87;41.72
58373;BME280;44177;43.356;27.672;2022-09-21T13:31:40;98064.66;;;20.86;41.98
58373;BME280;44177;43.356;27.672;2022-09-21T13:42:43;98073.03;;;20.82;42.05
58373;BME280;44177;43.356;27.672;2022-09-21T13:47:49;98077.47;;;20.76;41.92
58373;BME280;44177;43.356;27.672;2022-09-21T13:50:39;98086.56;;;20.76;42.21
58373;BME280;44177;43.356;27.672;2022-09-21T13:53:16;98088.53;;;20.79;41.93
58373;BME280;44177;43.356;27.672;2022-09-21T13:56:09;98094.47;;;20.78;42.01
58373;BME280;44177;43.356;27.672;2022-09-21T13:58:43;98086.19;;;20.74;42.01
58373;BME280;44177;43.356;27.672;2022-09-21T14:01:28;98079.09;;;20.73;42.26
58373;BME280;44177;43.356;27.672;2022-09-21T14:03:59;98089.34;;;20.76;42.19
58373;BME280;44177;43.356;27.672;2022-09-21T14:06:31;98080.69;;;20.71;41.99
58373;BME280;44177;43.356;27.672;2022-09-21T14:09:07;98090.97;;;20.74;42.12
58373;BME280;44177;43.356;27.672;2022-09-21T14:11:43;98084.63;;;20.73;42.03
58373;BME280;44177;43.356;27.672;2022-09-21T14:14:30;98087.41;;;20.73;42.36
58373;BME280;44177;43.356;27.672;2022-09-21T14:17:00;98090.19;;;20.73;42.28
58373;BME280;44177;43.356;27.672;2022-09-21T14:24:48;98079.91;;;20.70;42.08
58373;BME280;44177;43.356;27.672;2022-09-21T14:27:39;98077.13;;;20.70;42.21
58373;BME280;44177;43.356;27.672;2022-09-21T14:30:19;98067.25;;;20.69;42.00
58373;BME280;44177;43.356;27.672;2022-09-21T14:35:21;98064.09;;;20.67;42.18
58373;BME280;44177;43.356;27.672;2022-09-21T14:37:54;98066.88;;;20.67;42.37
58373;BME280;44177;43.356;27.672;2022-09-21T14:40:31;98063.34;;;20.66;42.35
58373;BME280;44177;43.356;27.672;2022-09-21T14:43:00;98062.53;;;20.66;42.16
58373;BME280;44177;43.356;27.672;2022-09-21T14:46:14;98061.75;;;20.65;42.26
58373;BME280;44177;43.356;27.672;2022-09-21T14:51:49;98060.19;;;20.64;42.36
58373;BME280;44177;43.356;27.672;2022-09-21T15:00:20;98057.47;;;20.61;42.36
58373;BME280;44177;43.356;27.672;2022-09-21T15:07:24;98043.63;;;20.61;42.50
58373;BME280;44177;43.356;27.672;2022-09-21T15:12:37;98043.28;;;20.55;42.17
58373;BME280;44177;43.356;27.672;2022-09-21T15:15:22;98041.66;;;20.58;42.38
58373;BME280;44177;43.356;27.672;2022-09-21T15:17:54;98042.16;;;20.52;42.52
58373;BME280;44177;43.356;27.672;2022-09-21T15:20:25;98053.19;;;20.56;42.44
58373;BME280;44177;43.356;27.672;2022-09-21T15:22:58;98059.50;;;20.57;42.54
58373;BME280;44177;43.356;27.672;2022-09-21T15:25:30;98061.50;;;20.56;42.56
58373;BME280;44177;43.356;27.672;2022-09-21T15:27:56;98066.25;;;20.56;42.50
58373;BME280;44177;43.356;27.672;2022-09-21T15:30:25;98070.22;;;20.55;42.44
58373;BME280;44177;43.356;27.672;2022-09-21T15:32:58;98061.91;;;20.55;42.39
58373;BME280;44177;43.356;27.672;2022-09-21T15:35:26;98063.50;;;20.52;42.59
58373;BME280;44177;43.356;27.672;2022-09-21T15:37:53;98076.97;;;20.54;42.48
58373;BME280;44177;43.356;27.672;2022-09-21T15:45:26;98080.59;;;20.47;42.25
58373;BME280;44177;43.356;27.672;2022-09-21T15:47:53;98086.09;;;20.50;42.21
58373;BME280;44177;43.356;27.672;2022-09-21T15:50:20;98081.75;;;20.49;42.37
58373;BME280;44177;43.356;27.672;2022-09-21T15:52:54;98088.09;;;20.50;42.18
58373;BME280;44177;43.356;27.672;2022-09-21T15:55:22;98070.38;;;20.44;42.24
58373;BME280;44177;43.356;27.672;2022-09-21T15:57:53;98080.97;;;20.49;42.22
58373;BME280;44177;43.356;27.672;2022-09-21T16:00:25;98086.56;;;20.45;42.31
58373;BME280;44177;43.356;27.672;2022-09-21T16:03:04;98084.94;;;20.48;42.38
58373;BME280;44177;43.356;27.672;2022-09-21T16:05:40;98093.25;;;20.48;42.26
58373;BME280;44177;43.356;27.672;2022-09-21T16:08:34;98090.91;;;20.46;42.20
58373;BME280;44177;43.356;27.672;2022-09-21T16:14:10;98086.25;;;20.40;42.19
58373;BME280;44177;43.356;27.672;2022-09-21T16:20:02;98102.06;;;20.43;42.39
58373;BME280;44177;43.356;27.672;2022-09-21T16:24:57;98098.47;;;20.42;42.57
58373;BME280;44177;43.356;27.672;2022-09-21T16:27:29;98097.69;;;20.42;42.60
58373;BME280;44177;43.356;27.672;2022-09-21T16:29:55;98091.38;;;20.41;42.78
58373;BME280;44177;43.356;27.672;2022-09-21T16:32:32;98101.66;;;20.41;42.67
58373;BME280;44177;43.356;27.672;2022-09-21T16:35:21;98100.09;;;20.40;42.56